Time;durP1;ratioP1;P1;durP2;ratioP2;P2;SDS_P1;SDS_P2;PMS_P1;PMS_P2;Temp;Humidity;BMP_temperature;BMP_pressure;BME280_temperature;BME280_humidity;BME280_pressure;Samples;Min_cycle;Max_cycle;Signal;HPM_P1;HPM_P2
2023/07/20 00:00:53;;;;;;;22.33;7.38;;;;;;;29.06;48.98;100551.47;4938604;28;20055;-79
2023/07/20 00:03:25;;;;;;;24.77;7.38;;;;;;;28.89;49.20;100521.50;4911883;28;20213;-79
2023/07/20 00:06:01;;;;;;;24.48;7.90;;;;;;;28.35;49.41;100447.75;4913632;28;20514;-81
2023/07/20 00:08:28;;;;;;;21.83;8.43;;;;;;;28.91;49.29;100527.53;4930161;28;20292;-81
2023/07/20 00:10:58;;;;;;;20.00;7.65;;;;;;;28.68;49.53;100489.63;4932131;28;20109;-80
2023/07/20 00:13:25;;;;;;;21.85;8.80;;;;;;;28.77;49.63;100496.25;4926221;28;20462;-80
2023/07/20 00:15:52;;;;;;;25.38;8.80;;;;;;;28.82;49.71;100503.69;4928140;28;20387;-80
2023/07/20 00:18:21;;;;;;;24.35;8.75;;;;;;;28.82;50.06;100487.28;4937796;28;20529;-79
2023/07/20 00:20:53;;;;;;;21.77;9.00;;;;;;;28.74;49.98;100458.53;4925631;28;20058;-79
2023/07/20 00:23:22;;;;;;;25.25;8.90;;;;;;;28.88;50.49;100483.50;4936518;28;20285;-80
2023/07/20 00:25:53;;;;;;;21.92;8.60;;;;;;;28.81;50.55;100485.63;4925052;28;20466;-80
2023/07/20 00:28:27;;;;;;;32.25;10.85;;;;;;;28.71;51.10;100448.94;4930669;28;20051;-82
2023/07/20 00:30:53;;;;;;;26.73;10.05;;;;;;;28.55;51.08;100425.34;4930417;28;20309;-81
2023/07/20 00:33:20;;;;;;;25.55;9.18;;;;;;;28.43;51.31;100397.34;4927392;28;20528;-81
2023/07/20 00:35:47;;;;;;;18.35;7.18;;;;;;;29.00;52.42;100473.22;4907364;28;20058;-80
2023/07/20 00:38:14;;;;;;;21.25;8.70;;;;;;;28.94;51.78;100461.44;4916276;28;20055;-82
2023/07/20 00:40:41;;;;;;;29.25;10.25;;;;;;;29.27;52.46;100486.00;4918412;29;20047;-79
2023/07/20 00:43:09;;;;;;;21.52;8.13;;;;;;;29.00;52.90;100429.50;4910323;29;20051;-79
2023/07/20 00:45:37;;;;;;;35.40;9.38;;;;;;;29.23;51.38;100472.03;4899119;28;20088;-80
2023/07/20 00:48:06;;;;;;;25.27;9.63;;;;;;;29.25;51.33;100501.84;4919329;28;20070;-79
2023/07/20 00:50:34;;;;;;;26.63;9.63;;;;;;;28.94;50.53;100453.22;4913688;29;20058;-80
2023/07/20 00:53:09;;;;;;;23.52;8.25;;;;;;;29.16;50.31;100513.25;4915541;29;20776;-81
2023/07/20 00:55:42;;;;;;;23.90;8.45;;;;;;;29.03;51.45;100510.97;4901808;29;20059;-79
2023/07/20 00:58:09;;;;;;;18.08;8.00;;;;;;;29.05;51.22;100518.88;4883507;28;20047;-79
2023/07/20 01:00:39;;;;;;;23.25;8.18;;;;;;;29.05;50.54;100524.34;4892490;28;20280;-80
2023/07/20 01:03:06;;;;;;;18.00;8.25;;;;;;;28.84;52.47;100496.88;4904228;28;20062;-78
2023/07/20 01:05:46;;;;;;;17.25;7.90;;;;;;;29.21;50.19;100522.59;4909272;28;20062;-79
2023/07/20 01:08:41;;;;;;;16.42;7.38;;;;;;;28.80;49.94;100478.53;4935317;28;20069;-79
2023/07/20 01:11:17;;;;;;;20.20;7.63;;;;;;;28.51;49.43;100492.47;4867652;29;20471;-80
2023/07/20 01:13:44;;;;;;;26.38;7.65;;;;;;;28.29;50.29;100489.75;4886721;29;20254;-80
2023/07/20 01:16:11;;;;;;;23.48;6.75;;;;;;;28.21;50.30;100512.88;4894708;29;20504;-80
2023/07/20 01:18:39;;;;;;;13.43;7.20;;;;;;;28.38;52.46;100536.53;4894802;29;20135;-80
2023/07/20 01:21:18;;;;;;;18.15;7.50;;;;;;;28.25;50.91;100522.19;4895469;29;20051;-79
2023/07/20 01:23:54;;;;;;;19.42;8.05;;;;;;;28.62;50.10;100562.50;4879628;29;20054;-80
2023/07/20 01:26:33;;;;;;;15.50;6.68;;;;;;;28.20;50.37;100538.50;4894186;29;20586;-82
2023/07/20 01:29:15;;;;;;;17.35;7.07;;;;;;;27.97;51.45;100531.41;4886612;29;20062;-81
2023/07/20 01:31:52;;;;;;;18.15;7.00;;;;;;;27.92;53.75;100479.53;4903243;29;20075;-80
2023/07/20 01:34:22;;;;;;;15.98;6.18;;;;;;;28.17;50.90;100524.56;4909880;28;20648;-81
2023/07/20 01:36:54;;;;;;;14.52;5.95;;;;;;;27.94;52.56;100539.25;4915054;29;20134;-81
2023/07/20 01:39:22;;;;;;;19.75;6.72;;;;;;;27.95;55.02;100532.75;4922682;28;20039;-79
2023/07/20 01:41:51;;;;;;;12.25;6.03;;;;;;;27.68;52.72;100500.72;4901574;28;20083;-80
2023/07/20 01:44:18;;;;;;;16.30;6.90;;;;;;;27.56;52.08;100535.47;4920192;29;20422;-80
2023/07/20 01:46:45;;;;;;;26.40;7.65;;;;;;;27.46;51.84;100545.13;4914052;29;20047;-79
2023/07/20 01:49:16;;;;;;;15.57;6.10;;;;;;;27.23;52.31;100561.66;4912595;28;20407;-80
2023/07/20 01:51:43;;;;;;;10.52;6.00;;;;;;;27.14;53.62;100566.69;4923325;28;20521;-79
2023/07/20 01:54:10;;;;;;;14.32;6.13;;;;;;;26.85;52.99;100541.41;4936443;29;20105;-80
2023/07/20 01:56:37;;;;;;;18.98;6.45;;;;;;;26.99;53.31;100547.34;4899254;28;20500;-79
2023/07/20 01:59:04;;;;;;;15.85;5.78;;;;;;;27.16;53.98;100534.56;4900961;28;20447;-79
2023/07/20 02:01:31;;;;;;;13.13;7.22;;;;;;;27.39;53.44;100551.84;4905964;28;20051;-78
2023/07/20 02:04:02;;;;;;;14.63;6.53;;;;;;;27.19;52.21;100557.81;4915143;28;20098;-79
2023/07/20 02:06:28;;;;;;;13.55;6.72;;;;;;;26.93;51.97;100549.16;4954794;28;20054;-78
2023/07/20 02:08:55;;;;;;;18.20;6.13;;;;;;;26.57;52.68;100544.97;4951147;28;20125;-77
2023/07/20 02:11:23;;;;;;;16.27;7.28;;;;;;;26.61;53.02;100554.31;4951239;28;20101;-79
2023/07/20 02:13:55;;;;;;;10.60;5.72;;;;;;;26.38;53.44;100579.69;4942162;28;20062;-81
2023/07/20 02:16:34;;;;;;;13.18;6.45;;;;;;;26.10;54.32;100569.59;4934327;28;20055;-79
2023/07/20 02:19:06;;;;;;;13.00;6.88;;;;;;;25.88;54.52;100542.22;4917511;29;20086;-80
2023/07/20 02:21:33;;;;;;;21.45;7.15;;;;;;;25.64;54.56;100506.88;4917462;29;20076;-79
2023/07/20 02:24:00;;;;;;;14.95;6.88;;;;;;;25.78;55.18;100561.81;4919786;29;20063;-78
2023/07/20 02:26:28;;;;;;;16.42;5.90;;;;;;;25.67;55.51;100551.78;4903883;29;20094;-78
2023/07/20 02:28:57;;;;;;;11.95;5.85;;;;;;;25.97;54.79;100578.84;4919361;29;20051;-81
2023/07/20 02:31:24;;;;;;;23.88;7.03;;;;;;;25.93;54.61;100583.13;4919383;28;20306;-81
2023/07/20 02:33:52;;;;;;;10.65;5.97;;;;;;;25.57;54.75;100533.34;4907965;28;20055;-80
2023/07/20 02:36:19;;;;;;;11.77;5.70;;;;;;;25.65;54.49;100543.03;4922696;28;20072;-79
2023/07/20 02:38:46;;;;;;;16.58;7.28;;;;;;;25.83;54.71;100588.28;4916989;28;20054;-79
2023/07/20 02:41:13;;;;;;;19.50;6.45;;;;;;;25.42;54.98;100516.69;4923272;28;20070;-80
2023/07/20 02:43:40;;;;;;;16.85;7.18;;;;;;;25.12;55.07;100468.69;4920221;28;20105;-80
2023/07/20 02:46:07;;;;;;;15.82;6.50;;;;;;;25.88;54.60;100593.88;4902742;28;20158;-81
2023/07/20 02:48:38;;;;;;;14.15;6.57;;;;;;;25.66;54.89;100567.25;4935067;28;20050;-80
2023/07/20 02:51:06;;;;;;;18.42;7.03;;;;;;;25.49;55.07;100544.59;4921568;28;20288;-79
2023/07/20 02:53:33;;;;;;;21.52;7.40;;;;;;;25.59;55.63;100561.13;4927121;28;20495;-79
2023/07/20 02:56:00;;;;;;;14.40;7.13;;;;;;;25.65;56.40;100565.59;4917387;28;20345;-80
2023/07/20 02:58:27;;;;;;;16.85;8.43;;;;;;;25.82;56.68;100570.31;4918574;28;20051;-80
2023/07/20 03:00:54;;;;;;;18.80;8.38;;;;;;;25.79;56.69;100582.50;4922471;28;20671;-80
2023/07/20 03:03:21;;;;;;;21.60;7.07;;;;;;;25.67;56.41;100560.75;4917164;28;20059;-82
2023/07/20 03:05:54;;;;;;;13.73;7.70;;;;;;;25.10;56.61;100468.94;4946399;28;20949;-80
2023/07/20 03:08:21;;;;;;;19.83;7.43;;;;;;;25.70;57.00;100576.56;4951483;28;20069;-80
2023/07/20 03:10:49;;;;;;;19.38;8.45;;;;;;;25.80;56.41;100600.44;4931298;28;20046;-80
2023/07/20 03:13:21;;;;;;;12.55;6.50;;;;;;;25.65;56.46;100573.75;4941223;28;20042;-81
2023/07/20 03:15:52;;;;;;;18.17;7.43;;;;;;;25.58;56.35;100545.84;4926568;28;20138;-79
2023/07/20 03:18:23;;;;;;;15.57;7.53;;;;;;;25.76;55.84;100572.94;4903383;28;20051;-80
2023/07/20 03:20:50;;;;;;;12.98;7.00;;;;;;;25.57;55.83;100542.31;4928181;28;20867;-81
2023/07/20 03:23:17;;;;;;;16.70;6.40;;;;;;;25.94;55.73;100590.19;4910135;28;20261;-80
2023/07/20 03:25:46;;;;;;;12.00;6.43;;;;;;;25.95;55.40;100576.38;4925457;28;20054;-80
2023/07/20 03:28:13;;;;;;;18.05;6.70;;;;;;;25.77;55.25;100541.94;4910961;28;20043;-80
2023/07/20 03:30:40;;;;;;;17.40;7.38;;;;;;;25.88;54.96;100553.09;4930841;28;20602;-78
2023/07/20 03:33:07;;;;;;;19.67;6.88;;;;;;;25.82;55.23;100559.44;4922529;28;20383;-80
2023/07/20 03:35:34;;;;;;;11.30;6.82;;;;;;;25.75;55.75;100560.41;4932320;28;20087;-79
2023/07/20 03:38:06;;;;;;;13.27;5.85;;;;;;;25.83;55.70;100545.63;4924724;28;20046;-81
2023/07/20 03:40:35;;;;;;;14.13;6.65;;;;;;;26.11;56.52;100563.09;4924393;28;20110;-81
2023/07/20 03:43:03;;;;;;;17.30;7.22;;;;;;;26.41;56.21;100560.16;4914769;28;20737;-79
2023/07/20 03:45:29;;;;;;;22.77;6.75;;;;;;;26.50;54.30;100549.69;4913086;28;20054;-79
2023/07/20 03:47:56;;;;;;;21.15;6.32;;;;;;;26.41;54.18;100547.38;4929276;28;20408;-77
2023/07/20 03:50:23;;;;;;;17.27;6.50;;;;;;;26.41;54.62;100557.44;4938036;28;20054;-78
2023/07/20 03:52:49;;;;;;;16.58;7.63;;;;;;;26.34;54.43;100552.16;4923528;28;20053;-80
2023/07/20 03:55:16;;;;;;;15.18;6.85;;;;;;;25.78;54.92;100462.03;4921048;28;20058;-78
2023/07/20 03:57:43;;;;;;;15.73;6.63;;;;;;;26.41;54.73;100552.00;4916260;28;20138;-77
2023/07/20 04:00:12;;;;;;;13.80;5.75;;;;;;;26.70;56.79;100554.72;4923955;28;20086;-79
2023/07/20 04:02:45;;;;;;;25.02;7.32;;;;;;;26.72;54.02;100547.16;4939444;28;20215;-79
2023/07/20 04:05:13;;;;;;;18.25;9.55;;;;;;;26.64;54.22;100559.25;4937106;28;20047;-79
2023/07/20 04:07:40;;;;;;;17.40;7.28;;;;;;;26.25;54.58;100520.94;4907229;28;20051;-79
2023/07/20 04:10:08;;;;;;;19.65;7.30;;;;;;;26.34;54.71;100551.31;4909179;28;20057;-79
2023/07/20 04:12:35;;;;;;;16.67;6.47;;;;;;;26.36;54.91;100560.03;4915985;28;20327;-79
2023/07/20 04:15:03;;;;;;;14.73;6.10;;;;;;;26.28;54.90;100547.66;4932129;28;20054;-79
2023/07/20 04:17:30;;;;;;;27.55;7.53;;;;;;;26.33;54.82;100561.34;4930140;28;20050;-79
2023/07/20 04:19:57;;;;;;;17.35;7.93;;;;;;;25.79;54.88;100482.72;4950745;28;20137;-80
2023/07/20 04:22:24;;;;;;;20.60;7.60;;;;;;;26.21;55.20;100542.38;4945868;28;20042;-81
2023/07/20 04:24:54;;;;;;;15.57;6.70;;;;;;;26.33;55.05;100572.25;4931628;28;20138;-79
2023/07/20 04:27:21;;;;;;;14.85;7.57;;;;;;;25.97;54.93;100524.44;4936842;28;20063;-81
2023/07/20 04:29:48;;;;;;;19.13;6.60;;;;;;;26.22;55.39;100575.84;4943133;28;20050;-80
2023/07/20 04:32:15;;;;;;;22.27;7.13;;;;;;;26.00;55.60;100538.41;4914783;28;20086;-79
2023/07/20 04:34:46;;;;;;;23.73;7.22;;;;;;;26.01;56.16;100525.63;4914364;28;20301;-81
2023/07/20 04:37:36;;;;;;;;;;;;;;;26.54;56.06;100570.78;4920547;28;20216;-80
2023/07/20 04:40:12;;;;;;;24.08;6.65;;;;;;;26.30;55.21;100512.88;4931247;28;20393;-78
2023/07/20 04:42:45;;;;;;;13.80;6.60;;;;;;;26.75;54.66;100563.84;4947229;28;20050;-78
2023/07/20 04:45:11;;;;;;;17.15;7.30;;;;;;;26.80;54.31;100577.53;4966357;28;20104;-80
2023/07/20 04:47:44;;;;;;;16.83;6.93;;;;;;;26.75;54.33;100580.19;4960826;28;20076;-80
2023/07/20 04:50:13;;;;;;;16.17;6.65;;;;;;;26.72;54.47;100577.91;4924939;28;20069;-81
2023/07/20 04:52:46;;;;;;;26.33;8.38;;;;;;;26.71;55.03;100575.47;4910871;28;20130;-80
2023/07/20 04:55:14;;;;;;;16.35;6.88;;;;;;;26.56;54.67;100549.59;4924780;28;20582;-79
2023/07/20 04:57:41;;;;;;;13.95;6.32;;;;;;;26.64;54.74;100562.00;4913601;28;20102;-79
2023/07/20 05:00:11;;;;;;;18.92;8.25;;;;;;;26.69;55.08;100553.09;4924538;28;20507;-79
2023/07/20 05:02:43;;;;;;;17.65;6.78;;;;;;;26.77;54.91;100541.78;4949081;28;20066;-80
2023/07/20 05:05:13;;;;;;;15.30;6.47;;;;;;;27.21;56.32;100580.16;4958216;28;20159;-79
2023/07/20 05:07:39;;;;;;;23.63;8.02;;;;;;;27.27;54.25;100560.09;4930390;28;20632;-81
2023/07/20 05:10:08;;;;;;;18.38;7.45;;;;;;;27.43;54.23;100561.16;4946265;28;20693;-80
2023/07/20 05:12:35;;;;;;;17.55;7.47;;;;;;;27.53;54.12;100588.59;4934615;28;20562;-80
2023/07/20 05:15:03;;;;;;;20.92;7.47;;;;;;;27.40;54.21;100565.22;4945554;28;20089;-78
2023/07/20 05:17:30;;;;;;;15.82;7.45;;;;;;;27.55;53.92;100577.41;4938126;28;20506;-80
2023/07/20 05:19:59;;;;;;;20.35;7.63;;;;;;;27.58;53.21;100571.50;4962109;28;20084;-81
2023/07/20 05:22:26;;;;;;;16.67;7.95;;;;;;;27.49;53.99;100563.72;4935277;28;20081;-79
2023/07/20 05:24:53;;;;;;;26.48;7.40;;;;;;;27.48;53.65;100534.00;4947645;28;20047;-79
2023/07/20 05:27:20;;;;;;;19.95;8.60;;;;;;;27.71;53.54;100571.94;4927978;28;20562;-79
2023/07/20 05:29:47;;;;;;;22.80;7.85;;;;;;;27.66;53.83;100554.69;4928340;28;20105;-81
2023/07/20 05:32:15;;;;;;;18.63;7.82;;;;;;;27.57;54.01;100537.09;4927161;28;20303;-79
2023/07/20 05:34:44;;;;;;;25.33;7.35;;;;;;;27.66;53.99;100554.69;4927781;28;20305;-79
2023/07/20 05:37:11;;;;;;;20.70;8.15;;;;;;;27.74;53.64;100572.53;4933442;28;20109;-78
2023/07/20 05:39:40;;;;;;;12.80;6.57;;;;;;;27.79;54.46;100584.31;4941658;28;20082;-79
2023/07/20 05:42:07;;;;;;;16.90;7.28;;;;;;;27.64;53.55;100545.94;4925783;28;20046;-77
2023/07/20 05:44:34;;;;;;;23.92;8.70;;;;;;;28.05;53.47;100587.44;4926161;28;20051;-79
2023/07/20 05:47:02;;;;;;;18.02;7.10;;;;;;;28.30;55.20;100582.31;4934976;28;20050;-79
2023/07/20 05:49:29;;;;;;;13.77;6.25;;;;;;;28.67;53.81;100572.66;4927269;28;20051;-78
2023/07/20 05:51:56;;;;;;;18.90;7.03;;;;;;;29.11;53.50;100589.75;4924924;28;20046;-80
2023/07/20 05:54:28;;;;;;;19.00;7.72;;;;;;;29.18;51.11;100582.16;4915875;28;20133;-80
2023/07/20 05:56:56;;;;;;;15.35;7.10;;;;;;;29.09;52.50;100586.47;4920820;28;20325;-78
2023/07/20 05:59:23;;;;;;;17.00;7.88;;;;;;;28.80;51.01;100564.03;4915872;28;20040;-80
2023/07/20 06:01:55;;;;;;;18.08;8.32;;;;;;;28.67;51.32;100584.41;4928076;28;20482;-80
2023/07/20 06:04:27;;;;;;;18.98;7.18;;;;;;;28.67;51.91;100589.84;4946993;28;20320;-79
2023/07/20 06:06:54;;;;;;;20.35;7.70;;;;;;;28.29;51.59;100536.16;4930928;28;20050;-77
2023/07/20 06:09:27;;;;;;;14.60;6.78;;;;;;;28.57;51.85;100605.28;4900645;28;20145;-79
2023/07/20 06:11:56;;;;;;;25.00;7.60;;;;;;;28.17;52.29;100563.59;4915457;28;20588;-79
2023/07/20 06:14:23;;;;;;;24.73;7.68;;;;;;;28.17;52.27;100569.03;4919641;28;20047;-78
2023/07/20 06:16:50;;;;;;;16.98;8.05;;;;;;;28.51;51.67;100615.34;4934382;28;20130;-80
2023/07/20 06:19:17;;;;;;;28.05;7.60;;;;;;;28.34;51.98;100586.16;4924477;28;20039;-80
2023/07/20 06:21:44;;;;;;;23.15;8.55;;;;;;;28.52;51.83;100604.16;4924223;28;20399;-78
2023/07/20 06:24:11;;;;;;;25.60;8.60;;;;;;;28.64;51.93;100622.31;4931563;28;20421;-79
2023/07/20 06:26:40;;;;;;;16.75;7.22;;;;;;;28.67;52.60;100617.16;4911052;28;20050;-78
2023/07/20 06:29:08;;;;;;;19.98;8.15;;;;;;;28.51;51.94;100601.69;4924077;28;20133;-80
2023/07/20 06:31:36;;;;;;;32.53;7.47;;;;;;;28.71;52.02;100639.31;4943557;28;20514;-78
2023/07/20 06:34:03;;;;;;;19.55;7.78;;;;;;;28.69;52.25;100630.56;4922170;28;20046;-77
2023/07/20 06:36:30;;;;;;;15.52;7.72;;;;;;;28.73;52.68;100632.50;4925660;28;20050;-81
2023/07/20 06:38:57;;;;;;;27.00;8.50;;;;;;;28.57;51.60;100608.88;4921682;28;20299;-80
2023/07/20 06:41:27;;;;;;;24.67;7.63;;;;;;;28.50;51.83;100614.53;4916903;28;20488;-79
2023/07/20 06:43:58;;;;;;;27.90;8.50;;;;;;;28.68;52.15;100629.72;4932802;28;20689;-79
2023/07/20 06:46:26;;;;;;;17.08;7.15;;;;;;;28.28;52.44;100573.56;4950056;28;20120;-78
2023/07/20 06:48:54;;;;;;;20.23;8.32;;;;;;;28.85;52.88;100634.28;4904273;28;20421;-78
2023/07/20 06:51:24;;;;;;;;;;;;;;;29.21;53.84;100640.13;4942764;28;20137;-78
2023/07/20 06:53:52;;;;;;;16.30;8.90;;;;;;;29.26;51.14;100623.78;4925265;28;19933;-79
2023/07/20 06:56:19;;;;;;;23.20;9.07;;;;;;;29.20;51.41;100636.56;4934706;28;20057;-79
2023/07/20 06:58:50;;;;;;;26.23;8.55;;;;;;;29.12;52.21;100648.78;4941737;28;20081;-79
2023/07/20 07:01:18;;;;;;;12.75;7.95;;;;;;;28.94;52.51;100619.09;4920212;28;20062;-79
2023/07/20 07:03:45;;;;;;;23.30;9.68;;;;;;;29.46;51.31;100621.19;4914215;28;20399;-78
2023/07/20 07:06:12;;;;;;;17.75;8.48;;;;;;;29.49;51.28;100650.78;4924052;28;20051;-80
2023/07/20 07:08:39;;;;;;;14.40;6.65;;;;;;;28.86;51.83;100548.50;4913280;29;20059;-79
2023/07/20 07:11:06;;;;;;;22.27;9.00;;;;;;;29.04;51.37;100600.03;4934197;28;20192;-79
2023/07/20 07:13:33;;;;;;;19.35;8.43;;;;;;;29.74;51.12;100652.09;4905290;28;20047;-80
2023/07/20 07:15:59;;;;;;;19.42;8.32;;;;;;;29.46;50.39;100650.47;4919954;28;20051;-81
2023/07/20 07:18:26;;;;;;;15.90;6.90;;;;;;;29.30;52.00;100655.81;4923359;28;20151;-80
2023/07/20 07:20:53;;;;;;;16.27;7.85;;;;;;;29.24;51.50;100647.81;4928122;29;20050;-79
2023/07/20 07:23:22;;;;;;;11.00;7.30;;;;;;;28.84;52.33;100572.53;4934339;28;20145;-80
2023/07/20 07:25:51;;;;;;;;;;;;;;;29.37;51.55;100658.31;4912307;29;20293;-80
2023/07/20 07:28:18;;;;;;;12.95;6.85;;;;;;;29.54;52.84;100659.03;4923340;28;20226;-80
2023/07/20 07:30:45;;;;;;;17.67;8.93;;;;;;;29.51;51.97;100651.31;4926156;28;20337;-79
2023/07/20 07:33:12;;;;;;;17.38;8.15;;;;;;;29.65;51.87;100645.41;4926622;28;20063;-79
2023/07/20 07:35:40;;;;;;;24.65;9.68;;;;;;;29.59;51.47;100641.81;4917467;28;20058;-82
2023/07/20 07:38:07;;;;;;;18.88;8.85;;;;;;;29.55;51.91;100666.13;4928885;29;20058;-80
2023/07/20 07:40:54;;;;;;;19.98;9.77;;;;;;;29.44;52.48;100653.44;4926068;28;20139;-81
2023/07/20 07:43:20;;;;;;;15.73;9.63;;;;;;;29.50;52.31;100663.34;4918629;29;20047;-80
2023/07/20 07:45:48;;;;;;;24.60;11.07;;;;;;;29.39;52.09;100648.75;4922714;28;20186;-79
2023/07/20 07:48:15;;;;;;;27.95;11.45;;;;;;;29.29;52.14;100623.25;4944103;28;20051;-80
2023/07/20 07:50:42;;;;;;;29.80;10.88;;;;;;;29.24;52.77;100631.41;4944984;28;20410;-80
2023/07/20 07:53:13;;;;;;;27.58;10.68;;;;;;;29.39;52.39;100646.03;4927007;28;20114;-80
2023/07/20 07:55:41;;;;;;;29.23;10.95;;;;;;;29.50;53.01;100657.06;4927041;28;20050;-80
2023/07/20 07:58:12;;;;;;;32.33;10.68;;;;;;;28.91;53.21;100584.91;4921934;28;20099;-80
2023/07/20 08:00:39;;;;;;;23.88;12.05;;;;;;;29.56;53.35;100659.56;4928347;28;20102;-80
2023/07/20 08:03:07;;;;;;;19.48;8.85;;;;;;;29.70;52.50;100615.38;4922518;29;20460;-80
2023/07/20 08:05:34;;;;;;;29.23;12.27;;;;;;;30.04;52.00;100656.91;4925536;28;20447;-80
2023/07/20 08:08:03;;;;;;;27.38;13.10;;;;;;;29.78;52.58;100623.09;4915261;28;20101;-80
2023/07/20 08:10:30;;;;;;;24.00;10.32;;;;;;;30.10;52.39;100668.72;4924219;28;20058;-80
2023/07/20 08:13:02;;;;;;;18.58;9.88;;;;;;;30.27;51.90;100655.72;4918130;29;20051;-82
2023/07/20 08:15:31;;;;;;;35.33;11.00;;;;;;;30.33;51.83;100654.63;4930869;28;20106;-79
2023/07/20 08:17:57;;;;;;;26.90;12.07;;;;;;;30.03;51.81;100622.44;4921905;28;20047;-81
2023/07/20 08:20:26;;;;;;;15.27;9.48;;;;;;;29.90;52.28;100588.13;4920186;28;20085;-81
2023/07/20 08:22:55;;;;;;;26.73;11.60;;;;;;;30.48;52.09;100644.84;4928019;28;20273;-81
2023/07/20 08:25:21;;;;;;;35.63;13.27;;;;;;;30.06;51.58;100597.25;4912774;28;20514;-80
2023/07/20 08:27:49;;;;;;;32.67;14.05;;;;;;;30.15;51.73;100625.78;4918804;28;20519;-79
2023/07/20 08:30:15;;;;;;;30.23;12.65;;;;;;;29.85;52.68;100609.19;4911767;28;20059;-79
2023/07/20 08:32:42;;;;;;;33.92;13.93;;;;;;;30.06;52.57;100632.84;4926589;29;20102;-79
2023/07/20 08:35:10;;;;;;;24.60;11.57;;;;;;;30.03;53.14;100634.22;4928248;28;20224;-79
2023/07/20 08:37:38;;;;;;;39.72;15.13;;;;;;;30.05;52.65;100642.13;4913814;29;20442;-80
2023/07/20 08:40:08;;;;;;;30.45;14.23;;;;;;;29.51;52.66;100539.19;4931228;28;20052;-79
2023/07/20 08:42:37;;;;;;;32.65;14.38;;;;;;;29.85;52.64;100599.06;4921802;29;20098;-82
2023/07/20 08:45:06;;;;;;;31.05;14.25;;;;;;;29.90;53.01;100612.75;4923900;28;20084;-81
2023/07/20 08:47:33;;;;;;;33.78;15.63;;;;;;;29.96;52.89;100628.13;4928521;28;20458;-79
2023/07/20 08:50:05;;;;;;;28.30;14.27;;;;;;;29.62;53.08;100589.31;4949003;28;20418;-79
2023/07/20 08:52:34;;;;;;;27.77;15.02;;;;;;;29.79;53.67;100625.56;4936811;29;20110;-80
2023/07/20 08:55:03;;;;;;;28.88;12.75;;;;;;;29.74;53.61;100619.25;4937340;28;20349;-81
2023/07/20 08:57:33;;;;;;;27.98;12.65;;;;;;;29.65;53.55;100587.97;4921632;29;20145;-78
2023/07/20 09:00:04;;;;;;;34.97;14.55;;;;;;;30.00;53.15;100623.78;4924920;28;20152;-80
2023/07/20 09:02:39;;;;;;;26.58;12.43;;;;;;;30.07;53.08;100598.91;4922905;28;20054;-81
2023/07/20 09:05:13;;;;;;;25.77;13.48;;;;;;;30.21;52.93;100599.25;4918606;28;20062;-80
2023/07/20 09:07:41;;;;;;;34.35;15.32;;;;;;;30.26;52.61;100593.00;4911473;28;20513;-78
2023/07/20 09:10:08;;;;;;;27.83;12.43;;;;;;;30.77;51.85;100602.19;4925635;28;20063;-75
2023/07/20 09:12:36;;;;;;;29.60;13.25;;;;;;;30.94;51.33;100610.19;4928984;29;20535;-79
2023/07/20 09:15:05;;;;;;;15.90;11.73;;;;;;;31.00;50.58;100580.88;4927093;28;20144;-81
2023/07/20 09:17:32;;;;;;;26.20;12.30;;;;;;;31.14;50.47;100608.56;4930184;28;20231;-81
2023/07/20 09:20:01;;;;;;;21.42;11.93;;;;;;;31.39;49.90;100618.72;4913735;28;20368;-81
2023/07/20 09:22:34;;;;;;;21.77;12.25;;;;;;;31.33;50.41;100617.88;4935175;29;20420;-79
2023/07/20 09:25:01;;;;;;;22.40;13.55;;;;;;;31.02;50.67;100595.13;4920325;28;20252;-79
2023/07/20 09:27:38;;;;;;;25.30;13.43;;;;;;;31.22;50.53;100578.69;4924586;28;20051;-79
2023/07/20 09:30:08;;;;;;;23.90;12.13;;;;;;;31.59;49.24;100587.72;4922823;28;20070;-78
2023/07/20 09:32:40;;;;;;;25.85;13.23;;;;;;;31.63;49.60;100606.13;4923480;28;20047;-79
2023/07/20 09:35:21;;;;;;;21.25;12.18;;;;;;;31.75;48.82;100613.22;4914926;29;20059;-79
2023/07/20 09:38:00;;;;;;;24.70;14.20;;;;;;;31.40;50.09;100612.97;4932892;28;20051;-80
2023/07/20 09:40:30;;;;;;;42.92;15.98;;;;;;;31.12;49.88;100588.81;4943091;28;20047;-79
2023/07/20 09:43:00;;;;;;;31.53;16.30;;;;;;;31.32;49.82;100604.47;4911640;28;20051;-80
2023/07/20 09:45:33;;;;;;;33.70;15.27;;;;;;;31.14;49.82;100592.94;4931272;29;20065;-80
2023/07/20 09:48:09;;;;;;;30.65;14.95;;;;;;;31.12;50.13;100592.41;4943737;28;20047;-79
2023/07/20 09:50:43;;;;;;;42.40;17.35;;;;;;;31.15;50.43;100589.09;4948168;28;20130;-79
2023/07/20 09:53:14;;;;;;;26.48;13.70;;;;;;;31.40;49.81;100576.50;4934902;28;20872;-79
2023/07/20 09:55:42;;;;;;;36.10;15.77;;;;;;;31.44;49.64;100589.41;4923509;29;20229;-80
2023/07/20 09:58:09;;;;;;;30.17;15.13;;;;;;;31.57;49.53;100611.88;4923329;28;20051;-79
2023/07/20 10:00:38;;;;;;;28.30;16.65;;;;;;;31.69;48.98;100596.75;4930982;28;20061;-80
2023/07/20 10:03:10;;;;;;;24.77;14.32;;;;;;;31.57;49.16;100596.22;4942233;28;20091;-78
2023/07/20 10:05:49;;;;;;;27.50;13.18;;;;;;;31.60;49.72;100586.63;4951593;28;20051;-79
2023/07/20 10:08:23;;;;;;;29.65;14.48;;;;;;;31.49;48.54;100511.75;4937921;28;20047;-80
2023/07/20 10:10:53;;;;;;;34.22;14.75;;;;;;;31.88;48.42;100558.56;4927745;28;20078;-79
2023/07/20 10:13:28;;;;;;;22.02;13.75;;;;;;;32.08;47.87;100562.38;4928740;28;20058;-80
2023/07/20 10:16:11;;;;;;;28.80;14.43;;;;;;;31.91;48.51;100576.41;4945470;28;20149;-80
2023/07/20 10:18:59;;;;;;;24.98;13.13;;;;;;;32.06;48.78;100587.34;4931897;28;20055;-78
2023/07/20 10:21:27;;;;;;;22.92;13.25;;;;;;;32.29;48.13;100590.56;4946523;28;20055;-79
2023/07/20 10:24:01;;;;;;;31.43;15.67;;;;;;;32.45;47.10;100594.03;4913964;28;20403;-80
2023/07/20 10:26:28;;;;;;;42.88;15.80;;;;;;;32.64;46.56;100597.00;4914301;28;20361;-80
2023/07/20 10:28:56;;;;;;;19.40;13.85;;;;;;;32.48;47.13;100593.47;4961657;28;20506;-80
2023/07/20 10:31:28;;;;;;;21.90;13.13;;;;;;;32.45;47.38;100572.06;4913882;28;20434;-79
2023/07/20 10:33:59;;;;;;;31.13;13.85;;;;;;;32.99;46.60;100594.00;4920862;28;20053;-80
2023/07/20 10:36:27;;;;;;;21.60;13.75;;;;;;;32.73;46.74;100587.88;4918993;28;20089;-77
2023/07/20 10:38:58;;;;;;;25.17;13.45;;;;;;;32.94;46.30;100585.81;4952072;28;20410;-78
2023/07/20 10:41:39;;;;;;;31.55;13.85;;;;;;;32.86;46.10;100578.16;4939261;28;20423;-79
2023/07/20 10:44:08;;;;;;;23.10;13.68;;;;;;;32.73;47.14;100579.63;4931492;28;20058;-78
2023/07/20 10:46:37;;;;;;;30.10;14.43;;;;;;;32.45;46.82;100528.91;4945051;28;20126;-79
2023/07/20 10:49:06;;;;;;;26.15;15.15;;;;;;;32.32;47.99;100551.53;4920699;28;20591;-79
2023/07/20 10:51:47;;;;;;;25.50;13.63;;;;;;;32.84;46.71;100574.84;4943671;28;20109;-78
2023/07/20 10:54:17;;;;;;;;;;;;;;;32.56;47.59;100579.19;4936650;28;20061;-79
2023/07/20 10:56:50;;;;;;;39.47;16.50;;;;;;;32.49;48.28;100571.25;4943558;28;20693;-79
2023/07/20 10:59:19;;;;;;;27.38;13.18;;;;;;;32.77;47.65;100574.38;4924741;28;20404;-79
2023/07/20 11:01:50;;;;;;;26.90;14.45;;;;;;;32.89;47.54;100566.59;4908790;29;20062;-79
2023/07/20 11:04:19;;;;;;;19.42;13.02;;;;;;;32.78;46.79;100510.03;4914912;28;20743;-80
2023/07/20 11:06:54;;;;;;;44.55;16.98;;;;;;;32.96;47.23;100572.59;4933872;28;20121;-81
2023/07/20 11:09:25;;;;;;;26.85;14.75;;;;;;;33.05;47.02;100561.00;4937725;28;20476;-78
2023/07/20 11:12:18;;;;;;;28.55;14.65;;;;;;;33.24;46.25;100548.19;4931986;28;20063;-79
2023/07/20 11:15:12;;;;;;;32.13;16.15;;;;;;;33.30;46.43;100544.25;4914518;28;20266;-79
2023/07/20 11:17:41;;;;;;;28.02;13.40;;;;;;;33.62;45.24;100545.63;4925561;28;20618;-78
2023/07/20 11:20:13;;;;;;;22.38;12.88;;;;;;;33.71;45.17;100554.88;4941523;28;20475;-81
2023/07/20 11:22:43;;;;;;;31.40;15.45;;;;;;;33.16;46.31;100532.31;4946750;28;20057;-78
2023/07/20 11:25:12;;;;;;;32.60;14.23;;;;;;;33.02;46.06;100465.31;4950459;28;20425;-81
2023/07/20 11:27:45;;;;;;;24.98;13.85;;;;;;;33.62;45.66;100529.13;4951320;28;20527;-80